Terminal Aerodrome Forecast
Issued by NWS Portland, OR

Home | Current Version | Previous Version | Text Only | Print | Product List | Glossary On
Versions: 1 2 3 4 5 6 7 8 9 10 11 12 13 14 15 16 17 18 19 20 21 22
000
FTUS46 KPQR 271507 AAA
TAFAST
TAF AMD
KAST 271507Z 2715/2812 VRB05KT P6SM -SHRA SCT025 BKN045 BKN060
     FM271600 28010KT P6SM -SHRA SCT025 BKN040 BKN060
     FM280000 32011KT P6SM VCSH SCT030 BKN045
     FM280600 29006KT P6SM FEW030 BKN045=

USA.gov is the U.S. government's official web portal to all federal, state and local government web resources and services.